Terminal Aerodrome Forecast
Issued by NWS Quad Cities IA IL

Home | Current Version | Previous Version | Text Only | Print | Product List | Glossary On
Versions: 1 2 3 4 5 6 7 8 9 10 11 12 13 14 15 16 17 18 19 20 21 22 23 24
000
FTUS43 KDVN 261520 AAA
TAFMLI
TAF AMD
KMLI 261520Z 2615/2712 12012G17KT P6SM VCSH BKN035
      TEMPO 2617/2619 3SM TSRA BR BKN025CB
     FM261900 13008KT P6SM BKN040
     FM270000 10005KT P6SM BKN100
     FM270900 04003KT 2SM BR SCT200=

USA.gov is the U.S. government's official web portal to all federal, state and local government web resources and services.